createdAt,value
2022-08-26T00:00:56.243Z,0.09
2022-08-26T00:01:58.133Z,0.09
2022-08-26T00:02:57.993Z,0.09
2022-08-26T00:03:58.826Z,0.09
2022-08-26T00:04:59.748Z,0.09
2022-08-26T00:06:01.474Z,0.09
2022-08-26T00:07:01.497Z,0.09
2022-08-26T00:08:01.826Z,0.09
2022-08-26T00:09:02.888Z,0.09
2022-08-26T00:10:02.143Z,0.09
2022-08-26T00:11:02.125Z,0.09
2022-08-26T00:12:03.882Z,0.09
2022-08-26T00:13:03.898Z,0.09
2022-08-26T00:14:03.462Z,0.09
2022-08-26T00:14:13.100Z,0.09
2022-08-26T00:15:14.020Z,0.09
2022-08-26T00:16:15.354Z,0.09
2022-08-26T00:17:15.047Z,0.09
2022-08-26T00:18:21.692Z,0.09
2022-08-26T00:19:16.680Z,0.09
2022-08-26T00:20:17.542Z,0.09
2022-08-26T00:21:18.863Z,0.09
2022-08-26T00:22:20.216Z,0.09
2022-08-26T00:23:19.262Z,0.09
2022-08-26T00:24:20.107Z,0.06
2022-08-26T00:25:21.986Z,0.09
2022-08-26T00:26:22.938Z,0.09
2022-08-26T00:27:22.680Z,0.09
2022-08-26T00:28:23.717Z,0.09
2022-08-26T00:29:23.347Z,0.09
2022-08-26T00:30:25.036Z,0.09
2022-08-26T00:31:24.241Z,0.09
2022-08-26T00:32:24.786Z,0.09
2022-08-26T00:33:24.829Z,0.09
2022-08-26T00:34:26.662Z,0.09
2022-08-26T00:35:27.954Z,0.09
2022-08-26T00:36:29.823Z,0.09
2022-08-26T00:37:27.816Z,0.09
2022-08-26T00:38:28.144Z,0.09
2022-08-26T00:38:37.842Z,0.09
2022-08-26T00:39:37.341Z,0.09
2022-08-26T00:40:37.350Z,0.09
2022-08-26T00:41:38.519Z,0.06
2022-08-26T00:42:38.380Z,0.09
2022-08-26T00:43:46.311Z,0.09
2022-08-26T00:44:38.718Z,0.09
2022-08-26T00:46:11.473Z,0.09
2022-08-26T00:47:12.412Z,0.09
2022-08-26T00:48:14.221Z,0.09
2022-08-26T00:49:14.975Z,0.09
2022-08-26T00:50:14.806Z,0.09
2022-08-26T00:51:15.763Z,0.09
2022-08-26T00:52:16.796Z,0.09
2022-08-26T00:53:18.760Z,0.09
2022-08-26T00:54:18.469Z,0.09
2022-08-26T00:55:20.252Z,0.06
2022-08-26T00:56:18.179Z,0.09
2022-08-26T00:57:19.737Z,0.09
2022-08-26T00:58:19.594Z,0.09
2022-08-26T00:59:20.522Z,0.09
2022-08-26T01:00:20.670Z,0.09
2022-08-26T01:01:23.108Z,0.09
2022-08-26T01:02:21.904Z,0.09
2022-08-26T01:03:21.724Z,0.09
2022-08-26T01:04:21.892Z,0.09
2022-08-26T01:05:23.499Z,0.09
2022-08-26T01:06:23.389Z,0.09
2022-08-26T01:07:24.268Z,0.09
2022-08-26T01:08:26.046Z,0.09
2022-08-26T01:09:25.941Z,0.09
2022-08-26T01:10:26.888Z,0.09
2022-08-26T01:11:28.324Z,0.09
2022-08-26T01:11:36.927Z,0.09
2022-08-26T01:12:40.184Z,0.09
2022-08-26T01:13:37.669Z,0.09
2022-08-26T01:14:39.510Z,0.09
2022-08-26T01:15:39.420Z,0.09
2022-08-26T01:16:40.135Z,0.09
2022-08-26T01:17:40.908Z,0.09
2022-08-26T01:18:41.906Z,0.09
2022-08-26T01:19:41.211Z,0.09
2022-08-26T01:20:41.331Z,0.09
2022-08-26T01:21:43.147Z,0.09
2022-08-26T01:22:43.651Z,0.09
2022-08-26T01:23:45.095Z,0.09
2022-08-26T01:24:44.373Z,0.09
2022-08-26T01:25:46.068Z,0.09
2022-08-26T01:26:46.228Z,0.09
2022-08-26T01:27:46.869Z,0.09
2022-08-26T01:28:46.607Z,0.09
2022-08-26T01:29:47.327Z,0.09
2022-08-26T01:30:48.244Z,0.09
2022-08-26T01:31:50.340Z,0.09
2022-08-26T01:32:50.010Z,0.09
2022-08-26T01:33:51.038Z,0.09
2022-08-26T01:34:51.019Z,0.09
2022-08-26T01:35:51.070Z,0.09
2022-08-26T01:36:00.480Z,0.09
2022-08-26T01:37:01.276Z,0.09
2022-08-26T01:38:02.100Z,0.09
2022-08-26T01:39:07.333Z,0.09
2022-08-26T01:40:02.804Z,0.09
2022-08-26T01:41:02.740Z,0.09
2022-08-26T01:42:03.498Z,0.09
2022-08-26T01:43:03.638Z,0.09
2022-08-26T01:44:03.575Z,0.09
2022-08-26T01:45:05.401Z,0.09
2022-08-26T01:46:05.345Z,0.09
2022-08-26T01:47:06.429Z,0.09
2022-08-26T01:48:06.205Z,0.09
2022-08-26T01:49:06.858Z,0.09
2022-08-26T01:50:07.029Z,0.09
2022-08-26T01:51:10.171Z,0.09
2022-08-26T01:52:08.539Z,0.06
2022-08-26T01:53:11.375Z,0.09
2022-08-26T01:54:11.836Z,0.09
2022-08-26T01:55:10.343Z,0.09
2022-08-26T01:56:10.424Z,0.09
2022-08-26T01:57:12.340Z,0.09
2022-08-26T01:57:21.002Z,0.09
2022-08-26T01:58:21.835Z,0.09
2022-08-26T01:59:22.282Z,0.09
2022-08-26T02:00:22.924Z,0.09
2022-08-26T02:01:23.067Z,0.09
2022-08-26T02:02:24.523Z,0.09
2022-08-26T02:03:24.396Z,0.09
2022-08-26T02:04:25.167Z,0.09
2022-08-26T02:05:26.067Z,0.09
2022-08-26T02:06:26.828Z,0.09
2022-08-26T02:07:27.776Z,0.09
2022-08-26T02:08:27.864Z,0.09
2022-08-26T02:09:28.613Z,0.09
2022-08-26T02:10:29.432Z,0.09
2022-08-26T02:11:29.470Z,0.09
2022-08-26T02:12:31.103Z,0.09
2022-08-26T02:13:30.613Z,0.09
2022-08-26T02:14:30.713Z,0.09
2022-08-26T02:15:31.584Z,0.09
2022-08-26T02:16:31.714Z,0.09
2022-08-26T02:17:31.786Z,0.09
2022-08-26T02:18:32.532Z,0.09
2022-08-26T02:19:34.158Z,0.09
2022-08-26T02:20:34.236Z,0.09
2022-08-26T02:21:33.998Z,0.09
2022-08-26T02:22:35.668Z,0.09
2022-08-26T02:23:36.437Z,0.09
2022-08-26T02:24:36.312Z,0.09
2022-08-26T02:25:37.573Z,0.09
2022-08-26T02:25:46.521Z,0.09
2022-08-26T02:26:47.448Z,0.09
2022-08-26T02:27:47.730Z,0.09
2022-08-26T02:28:49.608Z,0.06
2022-08-26T02:29:49.698Z,0.09
2022-08-26T02:30:48.735Z,0.09
2022-08-26T02:31:49.495Z,0.09
2022-08-26T02:32:50.220Z,0.09
2022-08-26T02:33:51.208Z,0.09
2022-08-26T02:34:50.960Z,0.09
2022-08-26T02:35:52.583Z,0.09
2022-08-26T02:36:53.315Z,0.09
2022-08-26T02:37:53.168Z,0.09
2022-08-26T02:38:53.593Z,0.09
2022-08-26T02:39:54.172Z,0.06
2022-08-26T02:40:54.956Z,0.09
2022-08-26T02:41:56.590Z,0.09
2022-08-26T02:42:57.165Z,0.09
2022-08-26T02:43:56.162Z,0.09
2022-08-26T02:44:57.697Z,0.09
2022-08-26T02:45:56.812Z,0.09
2022-08-26T02:46:58.554Z,0.09
2022-08-26T02:47:58.407Z,0.09
2022-08-26T02:48:59.264Z,0.09
2022-08-26T02:50:00.876Z,0.09
2022-08-26T02:50:10.503Z,0.09
2022-08-26T02:51:11.731Z,0.09
2022-08-26T02:52:11.372Z,0.09
2022-08-26T02:53:13.195Z,0.09
2022-08-26T02:54:14.053Z,0.09
2022-08-26T02:55:13.805Z,0.09
2022-08-26T02:56:15.485Z,0.09
2022-08-26T02:57:15.529Z,0.09
2022-08-26T02:58:16.516Z,0.09
2022-08-26T02:59:17.412Z,0.09
2022-08-26T03:00:18.172Z,0.09
2022-08-26T03:01:18.061Z,0.09
2022-08-26T03:02:18.142Z,0.09
2022-08-26T03:03:18.789Z,0.09
2022-08-26T03:04:20.339Z,0.09
2022-08-26T03:05:21.241Z,0.09
2022-08-26T03:06:20.815Z,0.09
2022-08-26T03:07:22.566Z,0.09
2022-08-26T03:08:22.809Z,0.09
2022-08-26T03:09:23.481Z,0.09
2022-08-26T03:10:23.267Z,0.09
2022-08-26T03:10:32.937Z,0.09
2022-08-26T03:11:33.621Z,0.09
2022-08-26T03:12:33.715Z,0.09
2022-08-26T03:13:34.532Z,0.09
2022-08-26T03:14:36.130Z,0.09
2022-08-26T03:15:36.431Z,0.09
2022-08-26T03:16:36.173Z,0.09
2022-08-26T03:17:36.800Z,0.09
2022-08-26T03:18:38.384Z,0.09
2022-08-26T03:19:38.080Z,0.09
2022-08-26T03:20:38.756Z,0.09
2022-08-26T03:21:40.461Z,0.09
2022-08-26T03:22:39.522Z,0.06
2022-08-26T03:23:40.728Z,0.09
2022-08-26T03:24:39.941Z,0.09
2022-08-26T03:25:40.872Z,0.09
2022-08-26T03:26:52.062Z,0.09
2022-08-26T03:27:43.122Z,0.09
2022-08-26T03:28:42.774Z,0.09
2022-08-26T03:29:43.486Z,0.09
2022-08-26T03:30:45.836Z,0.09
2022-08-26T03:31:44.928Z,0.09
2022-08-26T03:32:45.062Z,0.09
2022-08-26T03:33:46.082Z,0.09
2022-08-26T03:33:59.139Z,0.09
2022-08-26T03:34:56.196Z,0.09
2022-08-26T03:35:58.103Z,0.09
2022-08-26T03:36:59.001Z,0.09
2022-08-26T03:37:58.717Z,0.09
2022-08-26T03:39:00.625Z,0.09
2022-08-26T03:40:01.305Z,0.09
2022-08-26T03:41:00.820Z,0.09
2022-08-26T03:42:01.647Z,0.09
2022-08-26T03:43:02.377Z,0.09
2022-08-26T03:44:04.115Z,0.09
2022-08-26T03:46:12.890Z,0.09
2022-08-26T03:47:13.559Z,0.09
2022-08-26T03:48:15.188Z,0.09
2022-08-26T03:49:16.173Z,0.09
2022-08-26T03:50:15.338Z,0.06
2022-08-26T03:51:18.227Z,0.09
2022-08-26T03:52:16.377Z,0.09
2022-08-26T03:53:16.532Z,0.09
2022-08-26T03:54:17.253Z,0.09
2022-08-26T03:55:18.860Z,0.09
2022-08-26T03:56:19.595Z,0.06
2022-08-26T03:57:20.298Z,0.09
2022-08-26T03:58:21.153Z,0.09
2022-08-26T04:00:38.371Z,0.13
2022-08-26T04:01:39.267Z,0.09
2022-08-26T04:02:39.812Z,0.13
2022-08-26T04:03:40.359Z,0.13
2022-08-26T04:04:40.995Z,0.09
2022-08-26T04:05:41.516Z,0.13
2022-08-26T04:06:42.292Z,0.13
2022-08-26T04:07:43.221Z,0.09
2022-08-26T04:08:43.437Z,0.13
2022-08-26T04:09:43.708Z,0.13
2022-08-26T04:10:45.444Z,0.13
2022-08-26T04:11:44.961Z,0.13
2022-08-26T04:12:45.433Z,0.13
2022-08-26T04:13:47.101Z,0.13
2022-08-26T04:14:47.002Z,0.13
2022-08-26T04:15:48.731Z,0.13
2022-08-26T04:16:48.123Z,0.13
2022-08-26T04:17:49.332Z,0.13
2022-08-26T04:18:48.992Z,0.13
2022-08-26T04:19:50.385Z,0.13
2022-08-26T04:20:49.871Z,0.13
2022-08-26T04:21:51.445Z,0.13
2022-08-26T04:22:51.342Z,0.13
2022-08-26T04:23:52.056Z,0.13
2022-08-26T04:24:52.990Z,0.13
2022-08-26T04:25:01.616Z,0.13
2022-08-26T04:26:02.014Z,0.13
2022-08-26T04:27:03.125Z,0.13
2022-08-26T04:28:03.018Z,0.13
2022-08-26T04:29:04.673Z,0.13
2022-08-26T04:30:03.718Z,0.13
2022-08-26T04:31:04.420Z,0.13
2022-08-26T04:32:04.857Z,0.13
2022-08-26T04:33:12.939Z,0.09
2022-08-26T04:34:06.480Z,0.13
2022-08-26T04:35:07.779Z,0.13
2022-08-26T04:36:07.678Z,0.16
2022-08-26T04:37:07.689Z,0.13
2022-08-26T04:38:09.274Z,0.13
2022-08-26T04:39:09.373Z,0.16
2022-08-26T04:40:08.436Z,0.16
2022-08-26T04:41:15.292Z,0.13
2022-08-26T04:42:10.112Z,0.16
2022-08-26T04:43:11.832Z,0.16
2022-08-26T04:45:23.851Z,0.23
2022-08-26T04:46:24.266Z,0.16
2022-08-26T04:47:25.553Z,0.16
2022-08-26T04:48:24.493Z,0.16
2022-08-26T04:49:26.127Z,0.16
2022-08-26T04:50:25.214Z,0.16
2022-08-26T04:51:26.356Z,0.16
2022-08-26T04:52:26.122Z,0.16
2022-08-26T04:53:26.613Z,0.16
2022-08-26T04:54:28.643Z,0.16
2022-08-26T04:55:38.313Z,0.16
2022-08-26T04:56:28.652Z,0.16
2022-08-26T04:57:30.243Z,0.16
2022-08-26T04:58:30.122Z,0.23
2022-08-26T05:00:08.006Z,0.16
2022-08-26T05:01:03.895Z,0.23
2022-08-26T05:02:04.892Z,0.23
2022-08-26T05:03:05.330Z,0.23
2022-08-26T05:04:07.996Z,0.23
2022-08-26T05:05:06.027Z,0.27
2022-08-26T05:06:07.550Z,0.27
2022-08-26T05:07:06.827Z,0.27
2022-08-26T05:08:08.457Z,0.27
2022-08-26T05:09:08.390Z,0.27
2022-08-26T05:10:10.059Z,0.23
2022-08-26T05:11:10.015Z,0.27
2022-08-26T05:12:11.272Z,0.27
2022-08-26T05:13:12.647Z,0.27
2022-08-26T05:14:11.223Z,0.27
2022-08-26T05:15:11.845Z,0.27
2022-08-26T05:16:13.768Z,0.27
2022-08-26T05:17:15.041Z,0.27
2022-08-26T05:18:13.702Z,0.27
2022-08-26T05:19:14.880Z,0.27
2022-08-26T05:20:14.644Z,0.27
2022-08-26T05:21:14.940Z,0.27
2022-08-26T05:22:15.769Z,0.27
2022-08-26T05:23:16.452Z,0.27
2022-08-26T05:24:18.194Z,0.27
2022-08-26T05:24:26.809Z,0.27
2022-08-26T05:25:27.599Z,0.27
2022-08-26T05:26:28.391Z,0.27
2022-08-26T05:27:29.890Z,0.27
2022-08-26T05:28:29.540Z,0.27
2022-08-26T05:29:31.353Z,0.27
2022-08-26T05:30:31.975Z,0.27
2022-08-26T05:31:31.680Z,0.27
2022-08-26T05:32:32.290Z,0.31
2022-08-26T05:33:33.411Z,0.31
2022-08-26T05:34:34.078Z,0.31
2022-08-26T05:35:33.426Z,0.31
2022-08-26T05:36:35.124Z,0.31
2022-08-26T05:37:34.576Z,0.27
2022-08-26T05:38:35.206Z,0.31
2022-08-26T05:39:35.857Z,0.23
2022-08-26T05:40:37.608Z,0.34
2022-08-26T05:41:38.407Z,0.23
2022-08-26T05:42:37.559Z,0.31
2022-08-26T05:43:39.117Z,0.31
2022-08-26T05:44:55.351Z,0.23
2022-08-26T05:45:43.531Z,0.23
2022-08-26T05:46:40.354Z,0.27
2022-08-26T05:47:40.753Z,0.31
2022-08-26T05:47:51.382Z,0.31
2022-08-26T05:48:52.788Z,0.31
2022-08-26T05:49:53.756Z,0.23
2022-08-26T05:50:53.284Z,0.34
2022-08-26T05:51:53.895Z,0.34
2022-08-26T05:52:54.787Z,0.34
2022-08-26T05:53:55.726Z,0.31
2022-08-26T05:54:56.777Z,0.31
2022-08-26T05:55:58.188Z,0.31
2022-08-26T05:56:57.364Z,0.31
2022-08-26T05:57:58.940Z,0.31
2022-08-26T05:58:59.800Z,0.31
2022-08-26T05:59:58.507Z,0.31
2022-08-26T06:01:00.290Z,0.31
2022-08-26T06:01:59.512Z,0.34
2022-08-26T06:02:59.978Z,0.34
2022-08-26T06:04:01.711Z,0.34
2022-08-26T06:05:01.197Z,0.34
2022-08-26T06:06:01.782Z,0.34
2022-08-26T06:07:02.376Z,0.34
2022-08-26T06:08:03.219Z,0.34
2022-08-26T06:09:03.939Z,0.31
2022-08-26T06:10:31.118Z,0.34
2022-08-26T06:11:05.331Z,0.34
2022-08-26T06:11:18.422Z,0.34
2022-08-26T06:12:13.513Z,0.34
2022-08-26T06:13:13.873Z,0.34
2022-08-26T06:14:13.978Z,0.34
2022-08-26T06:15:14.982Z,0.34
2022-08-26T06:16:15.920Z,0.34
2022-08-26T06:17:15.407Z,0.34
2022-08-26T06:18:17.281Z,0.34
2022-08-26T06:19:16.948Z,0.34
2022-08-26T06:20:18.666Z,0.34
2022-08-26T06:21:19.127Z,0.34
2022-08-26T06:22:22.424Z,0.34
2022-08-26T06:23:19.345Z,0.34
2022-08-26T06:24:20.730Z,0.38
2022-08-26T06:25:20.539Z,0.34
2022-08-26T06:26:21.572Z,0.34
2022-08-26T06:27:21.379Z,0.34
2022-08-26T06:27:32.862Z,0.38
2022-08-26T06:28:29.205Z,0.34
2022-08-26T06:29:29.305Z,0.34
2022-08-26T06:30:33.209Z,0.34
2022-08-26T06:31:30.627Z,0.34
2022-08-26T06:32:30.563Z,0.34
2022-08-26T06:33:30.415Z,0.34
2022-08-26T06:34:31.308Z,0.34
2022-08-26T06:35:33.232Z,0.38
2022-08-26T06:36:34.094Z,0.41
2022-08-26T06:37:33.467Z,0.31
2022-08-26T06:38:34.147Z,0.38
2022-08-26T06:39:35.022Z,0.38
2022-08-26T06:40:35.058Z,0.41
2022-08-26T06:41:39.051Z,0.31
2022-08-26T06:42:36.714Z,0.34
2022-08-26T06:43:37.611Z,0.27
2022-08-26T06:44:38.273Z,0.31
2022-08-26T06:45:39.265Z,0.34
2022-08-26T06:46:40.158Z,0.31
2022-08-26T06:47:40.317Z,0.38
2022-08-26T06:48:42.620Z,0.38
2022-08-26T06:49:41.549Z,0.38
2022-08-26T06:49:54.318Z,0.38
2022-08-26T06:50:54.649Z,0.38
2022-08-26T06:51:55.861Z,0.38
2022-08-26T06:52:54.963Z,0.38
2022-08-26T06:53:55.153Z,0.41
2022-08-26T06:54:56.655Z,0.41
2022-08-26T06:55:57.617Z,0.41
2022-08-26T06:56:58.419Z,0.38
2022-08-26T06:57:59.117Z,0.38
2022-08-26T06:58:59.490Z,0.38
2022-08-26T06:59:58.686Z,0.38
2022-08-26T07:01:03.762Z,0.41
2022-08-26T07:01:59.909Z,0.41
2022-08-26T07:03:00.764Z,0.41
2022-08-26T07:04:01.202Z,0.41
2022-08-26T07:05:02.381Z,0.41
2022-08-26T07:06:02.202Z,0.45
2022-08-26T07:06:12.647Z,0.41
2022-08-26T07:07:10.284Z,0.45
2022-08-26T07:08:10.966Z,0.45
2022-08-26T07:09:11.886Z,0.45
2022-08-26T07:10:12.799Z,0.48
2022-08-26T07:11:13.637Z,0.48
2022-08-26T07:12:14.406Z,0.45
2022-08-26T07:13:16.049Z,0.52
2022-08-26T07:14:47.305Z,0.48
2022-08-26T07:15:44.014Z,0.41
2022-08-26T07:16:44.733Z,0.59
2022-08-26T07:17:44.926Z,0.41
2022-08-26T07:18:45.324Z,0.48
2022-08-26T07:19:45.701Z,0.41
2022-08-26T07:20:46.694Z,0.59
2022-08-26T07:21:47.847Z,0.45
2022-08-26T07:22:48.056Z,0.45
2022-08-26T07:23:56.379Z,0.45
2022-08-26T07:24:49.296Z,0.48
2022-08-26T07:25:50.061Z,0.52
2022-08-26T07:26:50.484Z,0.48
2022-08-26T07:27:54.179Z,0.48
2022-08-26T07:28:51.569Z,0.45
2022-08-26T07:29:51.458Z,0.48
2022-08-26T07:30:51.965Z,0.45
2022-08-26T07:31:52.233Z,0.55
2022-08-26T07:32:52.369Z,0.52
2022-08-26T07:33:53.442Z,0.52
2022-08-26T07:34:54.344Z,0.45
2022-08-26T07:35:03.457Z,0.55
2022-08-26T07:36:04.273Z,0.55
2022-08-26T07:37:04.035Z,0.59
2022-08-26T07:38:04.197Z,0.59
2022-08-26T07:39:04.560Z,0.55
2022-08-26T07:40:04.696Z,0.48
2022-08-26T07:41:04.938Z,0.48
2022-08-26T07:42:07.394Z,0.55
2022-08-26T07:43:05.340Z,0.48
2022-08-26T07:44:05.620Z,0.52
2022-08-26T07:45:06.928Z,0.66
2022-08-26T07:46:06.261Z,0.52
2022-08-26T07:47:39.433Z,0.41
2022-08-26T07:48:40.341Z,0.38
2022-08-26T07:49:40.901Z,0.45
2022-08-26T07:50:49.540Z,0.45
2022-08-26T07:51:41.833Z,0.45
2022-08-26T07:52:42.249Z,0.45
2022-08-26T07:53:43.649Z,0.45
2022-08-26T07:54:43.180Z,0.48
2022-08-26T07:55:43.371Z,0.45
2022-08-26T07:56:44.201Z,0.55
2022-08-26T07:57:43.989Z,0.48
2022-08-26T07:58:50.530Z,0.52
2022-08-26T07:59:44.883Z,0.52
2022-08-26T08:00:45.852Z,0.52
2022-08-26T08:01:46.228Z,0.59
2022-08-26T08:02:47.423Z,0.55
2022-08-26T08:03:47.236Z,0.59
2022-08-26T08:04:47.788Z,0.48
2022-08-26T08:05:47.793Z,0.59
2022-08-26T08:06:49.772Z,0.66
2022-08-26T08:07:53.482Z,0.66
2022-08-26T08:08:50.726Z,0.70
2022-08-26T08:09:50.580Z,0.55
2022-08-26T08:10:51.355Z,0.59
2022-08-26T08:11:52.284Z,0.66
2022-08-26T08:12:54.168Z,0.66
2022-08-26T08:13:03.316Z,0.66
2022-08-26T08:14:04.116Z,0.70
2022-08-26T08:15:04.245Z,0.66
2022-08-26T08:16:05.198Z,0.70
2022-08-26T08:17:06.172Z,0.70
2022-08-26T08:18:06.169Z,0.70
2022-08-26T08:19:07.051Z,0.66
2022-08-26T08:20:08.135Z,0.73
2022-08-26T08:21:22.058Z,0.66
2022-08-26T08:22:17.450Z,0.70
2022-08-26T08:23:08.569Z,0.70
2022-08-26T08:24:10.709Z,0.70
2022-08-26T08:25:10.888Z,0.70
2022-08-26T08:26:10.823Z,0.70
2022-08-26T08:27:12.243Z,0.73
2022-08-26T08:28:12.173Z,0.59
2022-08-26T08:29:14.168Z,0.66
2022-08-26T08:30:14.042Z,0.70
2022-08-26T08:31:14.103Z,0.80
2022-08-26T08:32:15.439Z,0.73
2022-08-26T08:33:14.886Z,0.70
2022-08-26T08:34:16.146Z,0.55
2022-08-26T08:35:15.818Z,0.66
2022-08-26T08:36:18.431Z,0.66
2022-08-26T08:37:17.034Z,0.66
2022-08-26T08:37:28.658Z,0.70
2022-08-26T08:38:30.496Z,0.70
2022-08-26T08:39:31.305Z,0.66
2022-08-26T08:40:31.541Z,0.70
2022-08-26T08:41:30.902Z,0.70
2022-08-26T08:42:31.748Z,0.77
2022-08-26T08:43:32.548Z,0.84
2022-08-26T08:44:34.865Z,0.80
2022-08-26T08:45:36.582Z,0.77
2022-08-26T08:46:34.782Z,0.80
2022-08-26T08:47:35.114Z,0.88
2022-08-26T08:48:35.692Z,0.77
2022-08-26T08:49:36.424Z,0.77
2022-08-26T08:50:37.172Z,0.77
2022-08-26T08:51:37.594Z,0.77
2022-08-26T08:52:39.580Z,0.77
2022-08-26T08:53:39.518Z,0.77
2022-08-26T08:54:38.932Z,0.77
2022-08-26T08:55:42.388Z,0.84
2022-08-26T08:56:41.786Z,0.91
2022-08-26T08:57:39.939Z,1.12
2022-08-26T08:58:42.012Z,0.91
2022-08-26T08:59:41.224Z,0.91
2022-08-26T09:00:41.947Z,1.02
2022-08-26T09:00:50.591Z,0.91
2022-08-26T09:01:52.262Z,0.95
2022-08-26T09:02:51.919Z,0.95
2022-08-26T09:03:53.290Z,1.02
2022-08-26T09:04:53.217Z,1.09
2022-08-26T09:05:55.216Z,1.20
2022-08-26T09:06:54.713Z,1.09
2022-08-26T09:07:54.799Z,1.09
2022-08-26T09:08:54.857Z,1.12
2022-08-26T09:09:56.206Z,1.16
2022-08-26T09:10:57.131Z,1.20
2022-08-26T09:11:56.119Z,1.27
2022-08-26T09:12:57.299Z,1.12
2022-08-26T09:13:58.014Z,1.23
2022-08-26T09:14:57.115Z,1.12
2022-08-26T09:15:58.064Z,1.69
2022-08-26T09:16:59.444Z,1.30
2022-08-26T09:17:58.844Z,1.37
2022-08-26T09:19:00.578Z,1.73
2022-08-26T09:19:59.965Z,1.94
2022-08-26T09:21:00.634Z,1.27
2022-08-26T09:22:05.792Z,1.30
2022-08-26T09:23:01.319Z,1.37
2022-08-26T09:23:11.943Z,1.37
2022-08-26T09:24:14.188Z,1.44
2022-08-26T09:25:13.313Z,1.34
2022-08-26T09:26:13.348Z,1.37
2022-08-26T09:27:16.914Z,1.41
2022-08-26T09:28:14.683Z,1.44
2022-08-26T09:29:15.203Z,1.94
2022-08-26T09:30:16.017Z,1.73
2022-08-26T09:31:18.065Z,1.41
2022-08-26T09:32:17.514Z,1.30
2022-08-26T09:33:18.227Z,1.98
2022-08-26T09:34:19.039Z,2.01
2022-08-26T09:35:19.404Z,2.05
2022-08-26T09:36:20.469Z,1.59
2022-08-26T09:37:21.205Z,1.09
2022-08-26T09:38:22.116Z,2.01
2022-08-26T09:39:22.694Z,1.37
2022-08-26T09:40:23.560Z,1.44
2022-08-26T09:41:22.846Z,1.59
2022-08-26T09:42:22.935Z,1.52
2022-08-26T09:43:24.263Z,1.73
2022-08-26T09:44:24.316Z,1.94
2022-08-26T09:44:35.946Z,1.94
2022-08-26T09:45:37.694Z,1.87
2022-08-26T09:46:37.533Z,1.94
2022-08-26T09:47:37.617Z,2.01
2022-08-26T09:48:40.482Z,2.16
2022-08-26T09:49:37.745Z,2.19
2022-08-26T09:50:38.065Z,2.01
2022-08-26T09:51:38.663Z,1.55
2022-08-26T09:52:40.408Z,1.94
2022-08-26T09:53:39.233Z,1.98
2022-08-26T09:54:40.889Z,2.05
2022-08-26T09:55:40.200Z,1.66
2022-08-26T09:56:42.158Z,1.98
2022-08-26T09:57:41.398Z,2.01
2022-08-26T09:58:41.948Z,2.05
2022-08-26T09:59:41.947Z,2.01
2022-08-26T10:00:42.457Z,2.09
2022-08-26T10:01:43.493Z,2.19
2022-08-26T10:02:47.877Z,2.12
2022-08-26T10:03:44.651Z,2.09
2022-08-26T10:04:45.032Z,2.12
2022-08-26T10:05:45.221Z,2.05
2022-08-26T10:06:46.623Z,2.01
2022-08-26T10:07:47.274Z,2.05
2022-08-26T10:08:47.399Z,2.09
2022-08-26T10:09:46.344Z,2.12
2022-08-26T10:09:54.987Z,2.09
2022-08-26T10:10:55.410Z,1.98
2022-08-26T10:11:57.112Z,1.77
2022-08-26T10:12:57.750Z,1.66
2022-08-26T10:13:58.153Z,1.55
2022-08-26T10:14:57.657Z,1.37
2022-08-26T10:15:59.115Z,1.84
2022-08-26T10:16:58.269Z,2.09
2022-08-26T10:18:00.117Z,2.09
2022-08-26T10:19:00.254Z,2.09
2022-08-26T10:19:59.947Z,1.84
2022-08-26T10:21:00.330Z,1.87
2022-08-26T10:22:00.584Z,1.80
2022-08-26T10:23:00.760Z,2.09
2022-08-26T10:24:01.444Z,2.12
2022-08-26T10:25:02.792Z,2.09
2022-08-26T10:26:02.311Z,2.05
2022-08-26T10:27:03.293Z,2.19
2022-08-26T10:28:03.710Z,2.19
2022-08-26T10:29:05.317Z,2.37
2022-08-26T10:30:04.324Z,2.26
2022-08-26T10:31:06.005Z,2.19
2022-08-26T10:32:06.861Z,2.16
2022-08-26T10:33:06.778Z,1.98
2022-08-26T10:33:18.087Z,2.19
2022-08-26T10:34:17.236Z,1.94
2022-08-26T10:35:17.583Z,1.55
2022-08-26T10:36:20.352Z,1.69
2022-08-26T10:37:19.072Z,1.98
2022-08-26T10:38:20.863Z,2.12
2022-08-26T10:39:20.358Z,2.09
2022-08-26T10:40:21.098Z,2.37
2022-08-26T10:41:21.436Z,2.41
2022-08-26T10:42:22.279Z,2.19
2022-08-26T10:43:23.110Z,1.62
2022-08-26T10:44:23.691Z,2.37
2022-08-26T10:45:24.989Z,2.19
2022-08-26T10:46:27.283Z,2.23
2022-08-26T10:47:25.009Z,2.19
2022-08-26T10:48:26.209Z,1.52
2022-08-26T10:49:27.178Z,2.30
2022-08-26T10:50:26.995Z,2.26
2022-08-26T10:51:28.176Z,2.23
2022-08-26T10:52:29.348Z,2.19
2022-08-26T10:53:28.076Z,2.26
2022-08-26T10:54:28.749Z,2.23
2022-08-26T10:55:30.813Z,2.30
2022-08-26T10:56:29.066Z,2.30
2022-08-26T10:57:30.000Z,2.41
2022-08-26T10:58:30.234Z,2.41
2022-08-26T10:59:31.029Z,2.30
2022-08-26T10:59:42.652Z,2.26
2022-08-26T11:00:40.903Z,1.94
2022-08-26T11:01:41.131Z,2.30
2022-08-26T11:02:41.103Z,2.23
2022-08-26T11:03:41.765Z,2.05
2022-08-26T11:04:47.100Z,2.23
2022-08-26T11:05:43.360Z,2.16
2022-08-26T11:06:44.002Z,2.16
2022-08-26T11:07:44.654Z,2.23
2022-08-26T11:08:44.739Z,2.16
2022-08-26T11:09:45.487Z,2.23
2022-08-26T11:10:45.548Z,2.01
2022-08-26T11:11:47.014Z,1.98
2022-08-26T11:12:49.358Z,2.16
2022-08-26T11:13:47.751Z,2.09
2022-08-26T11:14:58.519Z,1.98
2022-08-26T11:15:48.764Z,2.09
2022-08-26T11:16:49.374Z,2.26
2022-08-26T11:17:49.867Z,2.05
2022-08-26T11:18:51.319Z,2.01
2022-08-26T11:20:00.772Z,2.23
2022-08-26T11:20:03.313Z,2.09
2022-08-26T11:21:00.866Z,2.26
2022-08-26T11:22:01.523Z,2.23
2022-08-26T11:23:01.730Z,1.94
2022-08-26T11:24:02.558Z,2.30
2022-08-26T11:25:04.187Z,2.05
2022-08-26T11:26:04.021Z,2.19
2022-08-26T11:27:04.564Z,2.16
2022-08-26T11:28:04.676Z,2.23
2022-08-26T11:29:12.037Z,2.19
2022-08-26T11:30:05.773Z,1.94
2022-08-26T11:31:05.913Z,2.05
2022-08-26T11:32:06.868Z,2.16
2022-08-26T11:33:07.854Z,2.12
2022-08-26T11:34:08.866Z,1.77
2022-08-26T11:35:08.570Z,2.26
2022-08-26T11:36:12.269Z,1.77
2022-08-26T11:37:08.660Z,2.19
2022-08-26T11:38:09.216Z,2.19
2022-08-26T11:38:19.292Z,2.23
2022-08-26T11:39:18.446Z,2.09
2022-08-26T11:40:18.654Z,2.16
2022-08-26T11:41:19.503Z,1.80
2022-08-26T11:42:20.703Z,1.94
2022-08-26T11:43:20.558Z,2.19
2022-08-26T11:44:25.896Z,1.87
2022-08-26T11:46:30.100Z,2.01
2022-08-26T11:47:30.673Z,1.69
2022-08-26T11:48:31.657Z,2.09
2022-08-26T11:49:33.400Z,2.05
2022-08-26T11:50:32.596Z,1.80
2022-08-26T11:51:35.958Z,1.87
2022-08-26T11:52:36.149Z,1.84
2022-08-26T11:53:33.943Z,1.77
2022-08-26T11:54:35.867Z,2.01
2022-08-26T11:55:35.048Z,2.05
2022-08-26T11:56:36.453Z,1.80
2022-08-26T11:57:36.017Z,2.01
2022-08-26T11:58:37.009Z,1.94
2022-08-26T11:58:45.761Z,1.98
2022-08-26T11:59:47.754Z,1.73
2022-08-26T12:00:47.435Z,2.05
2022-08-26T12:01:47.958Z,2.01
2022-08-26T12:02:52.452Z,2.01
2022-08-26T12:03:48.950Z,2.01
2022-08-26T12:04:49.541Z,1.94
2022-08-26T12:05:49.781Z,1.98
2022-08-26T12:06:50.895Z,2.01
2022-08-26T12:07:50.208Z,1.77
2022-08-26T12:08:50.346Z,1.62
2022-08-26T12:09:50.472Z,1.84
2022-08-26T12:10:52.591Z,1.41
2022-08-26T12:11:51.394Z,1.84
2022-08-26T12:12:51.558Z,1.98
2022-08-26T12:13:52.916Z,2.01
2022-08-26T12:14:53.006Z,2.05
2022-08-26T12:15:52.787Z,2.05
2022-08-26T12:16:53.824Z,2.09
2022-08-26T12:18:01.789Z,2.05
2022-08-26T12:18:55.204Z,2.01
2022-08-26T12:22:35.005Z,2.01
2022-08-26T12:23:36.525Z,2.01
2022-08-26T12:24:36.101Z,2.01
2022-08-26T12:25:36.397Z,2.05
2022-08-26T12:26:37.652Z,2.05
2022-08-26T12:27:37.418Z,1.98
2022-08-26T12:28:38.123Z,2.01
2022-08-26T12:29:38.701Z,2.01
2022-08-26T12:30:39.698Z,2.01
2022-08-26T12:31:40.515Z,1.94
2022-08-26T12:32:57.140Z,1.84
2022-08-26T12:33:42.348Z,1.84
2022-08-26T12:34:43.274Z,1.87
2022-08-26T12:35:49.394Z,1.77
2022-08-26T12:36:44.711Z,1.80
2022-08-26T12:37:45.030Z,1.87
2022-08-26T12:38:45.760Z,1.80
2022-08-26T12:39:47.144Z,1.73
2022-08-26T12:40:47.927Z,1.80
2022-08-26T12:41:48.099Z,1.80
2022-08-26T12:42:48.794Z,1.73
2022-08-26T12:43:49.457Z,1.77
2022-08-26T12:43:58.732Z,2.01
2022-08-26T12:44:58.938Z,1.84
2022-08-26T12:46:00.300Z,1.73
2022-08-26T12:47:00.029Z,1.73
2022-08-26T12:48:00.706Z,1.87
2022-08-26T12:49:01.963Z,1.94
2022-08-26T12:50:02.528Z,1.80
2022-08-26T12:51:02.711Z,1.84
2022-08-26T12:52:01.717Z,1.84
2022-08-26T12:53:01.922Z,1.94
2022-08-26T12:54:02.943Z,1.52
2022-08-26T12:55:02.605Z,1.94
2022-08-26T12:56:03.740Z,1.80
2022-08-26T12:57:03.765Z,1.77
2022-08-26T12:58:04.269Z,1.84
2022-08-26T12:59:05.347Z,1.69
2022-08-26T13:00:05.239Z,1.87
2022-08-26T13:01:05.443Z,1.44
2022-08-26T13:02:06.136Z,1.23
2022-08-26T13:03:05.934Z,1.44
2022-08-26T13:04:06.470Z,0.98
2022-08-26T13:05:06.409Z,1.41
2022-08-26T13:06:07.718Z,0.95
2022-08-26T13:07:07.467Z,0.91
2022-08-26T13:08:08.017Z,0.95
2022-08-26T13:08:18.174Z,0.95
2022-08-26T13:09:18.634Z,1.80
2022-08-26T13:10:19.426Z,1.16